Time;durP1;ratioP1;P1;durP2;ratioP2;P2;SDS_P1;SDS_P2;PMS_P1;PMS_P2;Temp;Humidity;BMP_temperature;BMP_pressure;BME280_temperature;BME280_humidity;BME280_pressure;Samples;Min_cycle;Max_cycle;Signal;HPM_P1;HPM_P2
2021/05/14 00:00:47;;;;;;;1.52;0.80;;;25.20;40.40;;;;;;5025997;28;20502;-45
2021/05/14 00:03:14;;;;;;;1.60;0.98;;;25.20;40.50;;;;;;5029547;28;20037;-43
2021/05/14 00:05:40;;;;;;;1.48;0.85;;;25.20;40.50;;;;;;5015581;28;20491;-42
2021/05/14 00:08:07;;;;;;;2.10;0.60;;;25.20;40.50;;;;;;5013089;28;20056;-42
2021/05/14 00:10:37;;;;;;;2.92;0.90;;;25.20;40.50;;;;;;5021746;28;20013;-44
2021/05/14 00:13:08;;;;;;;1.40;0.93;;;25.20;40.50;;;;;;5016256;28;20025;-43
2021/05/14 00:15:34;;;;;;;2.15;0.75;;;25.20;40.40;;;;;;5031743;28;20560;-46
2021/05/14 00:18:00;;;;;;;1.55;0.60;;;25.20;40.50;;;;;;5033419;28;20167;-45
2021/05/14 00:20:27;;;;;;;3.47;1.02;;;25.20;40.40;;;;;;5028802;28;20188;-46
2021/05/14 00:22:53;;;;;;;2.08;0.90;;;25.20;40.50;;;;;;5026100;28;20752;-42
2021/05/14 00:25:19;;;;;;;1.27;0.55;;;25.20;40.50;;;;;;5012537;28;20040;-43
2021/05/14 00:27:45;;;;;;;1.23;0.60;;;25.20;40.50;;;;;;5030784;28;20025;-44
2021/05/14 00:30:11;;;;;;;1.85;0.57;;;25.20;40.50;;;;;;5019908;28;20418;-44
2021/05/14 00:32:38;;;;;;;1.20;0.60;;;25.10;40.40;;;;;;5027001;28;20116;-43
2021/05/14 00:35:05;;;;;;;1.15;0.50;;;25.10;40.50;;;;;;5021203;28;20087;-44
2021/05/14 00:37:32;;;;;;;1.42;0.77;;;25.10;40.40;;;;;;5024414;28;20021;-44
2021/05/14 00:39:58;;;;;;;1.20;0.50;;;25.10;40.40;;;;;;5026108;28;20064;-44
2021/05/14 00:42:23;;;;;;;1.63;0.50;;;25.10;40.40;;;;;;5028133;28;20065;-43
2021/05/14 00:44:49;;;;;;;0.98;0.57;;;25.10;40.40;;;;;;5029199;28;20513;-47
2021/05/14 00:47:17;;;;;;;1.27;0.50;;;25.10;40.40;;;;;;5020024;28;20090;-43
2021/05/14 00:49:44;;;;;;;4.32;0.77;;;25.10;40.40;;;;;;5016320;28;20060;-42
2021/05/14 00:52:16;;;;;;;1.75;0.52;;;25.10;40.40;;;;;;5018246;28;20038;-43
2021/05/14 00:54:43;;;;;;;1.30;0.43;;;25.10;40.40;;;;;;5025998;28;20393;-45
2021/05/14 00:57:12;;;;;;;2.08;0.70;;;25.10;40.40;;;;;;5024080;28;20034;-43
2021/05/14 00:59:38;;;;;;;1.55;0.98;;;25.10;40.40;;;;;;5009880;28;20034;-44
2021/05/14 01:02:05;;;;;;;1.33;0.50;;;25.00;40.40;;;;;;5020976;28;20080;-43
2021/05/14 01:04:32;;;;;;;1.13;0.73;;;25.10;40.40;;;;;;5022087;28;20025;-43
2021/05/14 01:06:58;;;;;;;1.08;0.38;;;25.10;40.50;;;;;;5026506;28;20036;-43
2021/05/14 01:09:24;;;;;;;0.82;0.47;;;25.00;40.40;;;;;;5029760;28;20527;-43
2021/05/14 01:11:50;;;;;;;1.73;0.40;;;25.00;40.40;;;;;;5027284;28;20482;-46
2021/05/14 01:14:16;;;;;;;1.20;0.50;;;25.00;40.40;;;;;;5027963;28;20041;-43
2021/05/14 01:16:43;;;;;;;1.52;0.70;;;25.00;40.40;;;;;;5010261;28;20049;-45
2021/05/14 01:19:09;;;;;;;1.08;0.40;;;25.00;40.40;;;;;;5036954;28;20029;-42
2021/05/14 01:21:35;;;;;;;2.88;0.60;;;25.00;40.40;;;;;;5016627;28;20025;-43
2021/05/14 01:24:02;;;;;;;0.85;0.32;;;25.00;40.40;;;;;;5031126;28;20041;-43
2021/05/14 01:26:28;;;;;;;0.77;0.30;;;25.00;40.40;;;;;;5037430;28;20025;-46
2021/05/14 01:28:55;;;;;;;0.73;0.30;;;25.00;40.40;;;;;;5038642;28;20041;-46
2021/05/14 01:31:22;;;;;;;0.73;0.30;;;25.00;40.40;;;;;;5033062;28;20030;-44
2021/05/14 01:33:49;;;;;;;0.95;0.40;;;25.00;40.40;;;;;;5023034;28;20026;-42
2021/05/14 01:36:15;;;;;;;0.75;0.30;;;25.00;40.40;;;;;;5020702;28;20135;-45
2021/05/14 01:38:41;;;;;;;0.95;0.50;;;25.00;40.40;;;;;;5020175;28;20495;-44
2021/05/14 01:41:08;;;;;;;0.88;0.50;;;25.00;40.40;;;;;;5027435;28;20037;-43
2021/05/14 01:43:34;;;;;;;2.05;0.65;;;25.00;40.40;;;;;;5023809;28;20112;-42
2021/05/14 01:46:04;;;;;;;0.75;0.50;;;25.00;40.40;;;;;;5028013;28;20487;-44
2021/05/14 01:48:31;;;;;;;1.33;0.30;;;24.90;40.40;;;;;;5025076;28;20030;-42
2021/05/14 01:51:11;;;;;;;0.95;0.50;;;24.90;40.40;;;;;;5030906;28;20057;-42
2021/05/14 01:53:37;;;;;;;1.05;0.32;;;24.90;40.40;;;;;;5023429;28;20036;-43
2021/05/14 01:56:04;;;;;;;1.02;0.30;;;24.90;40.40;;;;;;5032225;28;20030;-43
2021/05/14 01:58:30;;;;;;;0.60;0.20;;;24.90;40.50;;;;;;5032264;28;20190;-42
2021/05/14 02:00:56;;;;;;;0.77;0.30;;;24.90;40.40;;;;;;5027456;28;20065;-45
2021/05/14 02:03:22;;;;;;;0.95;0.47;;;24.90;40.40;;;;;;5039259;28;20558;-44
2021/05/14 02:05:48;;;;;;;1.40;0.40;;;24.90;40.40;;;;;;5024983;28;20026;-44
2021/05/14 02:08:14;;;;;;;1.75;0.40;;;24.90;40.40;;;;;;5033350;28;20025;-43
2021/05/14 02:10:40;;;;;;;0.77;0.35;;;24.90;40.40;;;;;;5037317;28;20029;-43
2021/05/14 02:13:06;;;;;;;1.33;0.40;;;24.90;40.40;;;;;;5035949;28;20041;-43
2021/05/14 02:15:32;;;;;;;0.73;0.30;;;24.90;40.40;;;;;;5037277;28;20034;-45
2021/05/14 02:17:59;;;;;;;0.82;0.30;;;24.90;40.40;;;;;;5030771;28;20025;-42
2021/05/14 02:20:25;;;;;;;0.60;0.20;;;24.90;40.40;;;;;;5028101;28;20041;-43
2021/05/14 02:22:51;;;;;;;1.40;0.45;;;24.80;40.40;;;;;;5030284;28;20028;-42
2021/05/14 02:25:17;;;;;;;0.70;0.30;;;24.80;40.40;;;;;;5033755;28;20173;-43
2021/05/14 02:27:43;;;;;;;0.47;0.20;;;24.80;40.30;;;;;;5034824;28;20481;-43
2021/05/14 02:30:10;;;;;;;0.63;0.30;;;24.80;40.30;;;;;;5026216;28;20026;-44
2021/05/14 02:32:36;;;;;;;0.65;0.30;;;24.80;40.30;;;;;;5024264;28;20026;-45
2021/05/14 02:35:03;;;;;;;0.52;0.20;;;24.80;40.30;;;;;;5016086;28;20030;-43
2021/05/14 02:37:29;;;;;;;1.75;0.38;;;24.80;40.80;;;;;;5028913;28;20563;-44
2021/05/14 02:39:55;;;;;;;0.70;0.30;;;24.80;40.30;;;;;;5038948;28;20021;-45
2021/05/14 02:42:21;;;;;;;1.65;0.38;;;24.80;40.30;;;;;;5009522;28;20045;-42
2021/05/14 02:44:47;;;;;;;0.85;0.22;;;24.80;40.30;;;;;;5037310;28;20110;-43
2021/05/14 02:47:13;;;;;;;2.45;0.52;;;24.80;40.30;;;;;;5030018;28;20080;-43
2021/05/14 02:49:39;;;;;;;0.70;0.30;;;24.80;40.30;;;;;;5033363;28;20025;-42
2021/05/14 02:52:06;;;;;;;1.25;0.30;;;24.80;40.30;;;;;;5022722;28;20041;-43
2021/05/14 02:54:35;;;;;;;1.15;0.20;;;24.80;40.30;;;;;;5035632;28;20030;-45
2021/05/14 02:57:03;;;;;;;0.70;0.30;;;24.80;40.30;;;;;;5015814;28;20061;-43
2021/05/14 02:59:28;;;;;;;0.85;0.25;;;24.80;40.30;;;;;;5028413;28;20111;-43
2021/05/14 03:01:55;;;;;;;0.88;0.40;;;24.80;40.30;;;;;;5033714;28;20053;-45
2021/05/14 03:04:21;;;;;;;1.00;0.20;;;24.80;40.40;;;;;;5032600;28;20091;-45
2021/05/14 03:06:47;;;;;;;0.30;0.13;;;24.80;40.40;;;;;;5026246;28;20059;-46
2021/05/14 03:09:13;;;;;;;0.68;0.30;;;24.80;40.40;;;;;;5030410;28;20146;-43
2021/05/14 03:11:39;;;;;;;0.57;0.22;;;24.80;40.40;;;;;;5031700;28;20053;-42
2021/05/14 03:14:06;;;;;;;0.88;0.45;;;24.80;40.40;;;;;;5023575;28;20106;-44
2021/05/14 03:16:36;;;;;;;0.70;0.30;;;24.70;40.80;;;;;;5021820;28;20025;-42
2021/05/14 03:19:03;;;;;;;0.88;0.40;;;24.70;40.30;;;;;;5016619;28;20049;-43
2021/05/14 03:21:31;;;;;;;1.15;0.38;;;24.70;40.30;;;;;;5029072;28;20034;-44
2021/05/14 03:23:58;;;;;;;0.50;0.20;;;24.70;40.30;;;;;;5005839;28;20036;-43
2021/05/14 03:26:25;;;;;;;1.95;0.30;;;24.70;40.30;;;;;;5031196;28;20017;-44
2021/05/14 03:28:52;;;;;;;0.70;0.30;;;24.70;40.40;;;;;;5030816;28;20064;-43
2021/05/14 03:31:18;;;;;;;1.08;0.40;;;24.70;40.30;;;;;;5031239;28;20451;-44
2021/05/14 03:33:44;;;;;;;0.45;0.20;;;24.70;40.30;;;;;;5029611;28;20141;-42
2021/05/14 03:36:10;;;;;;;0.75;0.20;;;24.70;40.40;;;;;;5025915;28;20033;-43
2021/05/14 03:38:36;;;;;;;0.80;0.20;;;24.70;40.40;;;;;;5028041;28;20097;-42
2021/05/14 03:41:17;;;;;;;0.93;0.40;;;24.70;40.40;;;;;;5019687;28;20108;-42
2021/05/14 03:43:43;;;;;;;1.05;0.20;;;24.70;40.40;;;;;;5025042;28;20390;-42
2021/05/14 03:46:09;;;;;;;0.60;0.30;;;24.70;40.30;;;;;;5024456;28;20026;-44
2021/05/14 03:48:35;;;;;;;0.40;0.20;;;24.70;40.30;;;;;;5032428;28;20133;-44
2021/05/14 03:51:01;;;;;;;1.02;0.20;;;24.60;40.30;;;;;;5012645;28;20095;-43
2021/05/14 03:53:27;;;;;;;0.43;0.20;;;24.60;40.30;;;;;;5030747;28;20029;-43
2021/05/14 03:55:53;;;;;;;0.80;0.30;;;24.70;40.40;;;;;;5007833;28;20094;-42
2021/05/14 03:58:19;;;;;;;0.90;0.20;;;24.70;40.40;;;;;;5026337;28;20033;-43
2021/05/14 04:00:45;;;;;;;1.80;0.30;;;24.60;40.30;;;;;;5029029;28;20022;-42
2021/05/14 04:03:14;;;;;;;0.65;0.25;;;24.60;40.30;;;;;;5030064;28;20017;-42
2021/05/14 04:05:40;;;;;;;1.08;0.20;;;24.60;40.30;;;;;;5000702;28;20030;-42
2021/05/14 04:08:07;;;;;;;0.40;0.20;;;24.60;40.30;;;;;;5030018;28;20033;-43
2021/05/14 04:15:44;;;;;;;0.70;0.30;;;24.60;40.30;;;;;;5021854;28;20025;-47
2021/05/14 04:18:10;;;;;;;1.92;0.20;;;24.60;40.30;;;;;;5032858;28;20033;-43
2021/05/14 04:20:37;;;;;;;0.30;0.20;;;24.60;40.30;;;;;;5025240;28;20590;-43
2021/05/14 04:23:04;;;;;;;0.45;0.20;;;24.60;40.30;;;;;;5026003;28;20022;-43
2021/05/14 04:25:31;;;;;;;0.57;0.28;;;24.60;40.30;;;;;;5023386;28;20057;-44
2021/05/14 04:27:57;;;;;;;1.95;0.20;;;24.60;40.30;;;;;;5032773;28;20083;-42
2021/05/14 04:30:23;;;;;;;1.25;0.25;;;24.60;40.30;;;;;;5023010;28;20034;-47
2021/05/14 04:32:49;;;;;;;1.95;0.20;;;24.60;40.30;;;;;;5020709;28;20360;-42
2021/05/14 04:35:15;;;;;;;0.55;0.20;;;24.60;40.30;;;;;;5023995;28;20087;-43
2021/05/14 04:37:41;;;;;;;0.55;0.20;;;24.60;40.30;;;;;;5024496;28;20025;-43
2021/05/14 04:40:08;;;;;;;2.45;0.38;;;24.60;40.30;;;;;;5020280;28;20024;-46
2021/05/14 04:42:33;;;;;;;0.95;0.20;;;24.60;40.30;;;;;;5027671;28;20041;-41
2021/05/14 04:44:59;;;;;;;1.02;0.20;;;24.60;40.30;;;;;;5022083;28;20040;-45
2021/05/14 04:47:25;;;;;;;0.47;0.20;;;24.60;40.30;;;;;;5026654;28;20033;-45
2021/05/14 04:49:51;;;;;;;0.63;0.30;;;24.60;40.30;;;;;;5020486;28;20507;-44
2021/05/14 04:52:20;;;;;;;0.50;0.20;;;24.50;40.20;;;;;;5015525;28;20030;-51
2021/05/14 04:54:47;;;;;;;0.73;0.20;;;24.60;40.30;;;;;;5020241;28;20068;-44
2021/05/14 04:57:13;;;;;;;0.50;0.20;;;24.60;40.20;;;;;;5035306;28;20083;-44
2021/05/14 04:59:41;;;;;;;0.60;0.30;;;24.50;40.10;;;;;;5025674;28;20518;-42
2021/05/14 05:02:08;;;;;;;0.30;0.20;;;24.50;40.20;;;;;;5024286;28;20048;-43
2021/05/14 05:04:38;;;;;;;1.25;0.30;;;24.50;40.20;;;;;;5026532;28;20028;-43
2021/05/14 05:07:04;;;;;;;0.77;0.20;;;24.50;40.20;;;;;;5022882;28;20116;-42
2021/05/14 05:09:30;;;;;;;0.50;0.20;;;24.50;40.20;;;;;;5022666;28;20037;-43
2021/05/14 05:11:56;;;;;;;0.40;0.20;;;24.50;40.20;;;;;;5025385;28;20087;-43
2021/05/14 05:14:22;;;;;;;0.50;0.20;;;24.50;40.20;;;;;;5029371;28;20033;-42
2021/05/14 05:16:48;;;;;;;2.47;0.20;;;24.50;40.20;;;;;;5026533;28;20033;-44
2021/05/14 05:19:14;;;;;;;0.40;0.20;;;24.50;40.30;;;;;;5027690;28;20144;-43
2021/05/14 05:21:40;;;;;;;0.43;0.20;;;24.50;40.30;;;;;;5017075;28;20503;-44
2021/05/14 05:24:07;;;;;;;0.70;0.20;;;24.60;40.40;;;;;;5022940;28;20028;-40
2021/05/14 05:26:33;;;;;;;0.50;0.13;;;24.50;40.30;;;;;;5026415;28;20048;-44
2021/05/14 05:28:59;;;;;;;0.50;0.20;;;24.50;40.30;;;;;;5031388;28;20072;-43
2021/05/14 05:31:25;;;;;;;1.13;0.20;;;24.50;40.40;;;;;;5024801;28;20541;-43
2021/05/14 05:33:50;;;;;;;0.93;0.17;;;24.50;40.40;;;;;;5019666;28;20115;-44
2021/05/14 05:36:16;;;;;;;0.32;0.20;;;24.50;40.40;;;;;;5032482;28;20033;-47
2021/05/14 05:38:42;;;;;;;0.60;0.30;;;24.50;40.40;;;;;;5019964;28;20061;-46
2021/05/14 05:41:08;;;;;;;0.35;0.20;;;24.50;40.30;;;;;;5029817;28;20076;-44
2021/05/14 05:43:35;;;;;;;0.40;0.20;;;24.50;40.30;;;;;;5018635;28;20026;-42
2021/05/14 05:46:01;;;;;;;1.27;0.20;;;24.50;40.30;;;;;;5030458;28;20092;-45
2021/05/14 05:48:27;;;;;;;0.95;0.28;;;24.50;40.20;;;;;;5028783;28;20572;-45
2021/05/14 05:50:53;;;;;;;0.50;0.20;;;24.50;40.20;;;;;;5027695;28;20379;-45
2021/05/14 05:53:19;;;;;;;0.50;0.30;;;24.50;40.20;;;;;;5025516;28;20502;-45
2021/05/14 05:55:45;;;;;;;0.95;0.30;;;24.50;40.10;;;;;;5036740;28;20047;-43
2021/05/14 05:58:13;;;;;;;1.30;0.40;;;24.50;40.20;;;;;;5008862;28;20522;-44
2021/05/14 06:00:39;;;;;;;2.05;1.80;;;24.50;40.10;;;;;;5016752;28;20025;-43
2021/05/14 06:03:07;;;;;;;2.45;1.52;;;24.30;40.30;;;;;;5021309;28;20026;-43
2021/05/14 06:05:34;;;;;;;3.08;2.80;;;24.30;40.40;;;;;;5029282;28;20096;-45
2021/05/14 06:08:00;;;;;;;4.88;3.90;;;24.20;40.50;;;;;;5014796;28;20049;-47
2021/05/14 06:10:26;;;;;;;4.53;4.13;;;24.20;40.80;;;;;;5014984;28;20113;-44
2021/05/14 06:12:53;;;;;;;4.15;3.47;;;24.00;41.00;;;;;;5015279;28;20516;-50
2021/05/14 06:15:19;;;;;;;6.47;3.50;;;24.10;40.90;;;;;;5025091;28;20112;-46
2021/05/14 06:17:45;;;;;;;5.13;3.97;;;24.10;40.90;;;;;;5022533;28;20021;-46
2021/05/14 06:20:15;;;;;;;4.53;3.95;;;24.10;40.90;;;;;;5023460;28;20494;-47
2021/05/14 06:22:42;;;;;;;4.55;4.15;;;24.00;40.80;;;;;;5014084;28;20592;-44
2021/05/14 06:25:08;;;;;;;4.82;4.43;;;23.90;40.70;;;;;;5025715;28;20056;-44
2021/05/14 06:27:34;;;;;;;5.18;4.70;;;23.90;40.90;;;;;;5018220;28;20518;-41
2021/05/14 06:30:01;;;;;;;3.88;3.58;;;23.90;40.90;;;;;;5021869;28;20029;-40
2021/05/14 06:32:27;;;;;;;4.75;4.25;;;23.90;40.70;;;;;;5020688;28;20040;-41
2021/05/14 06:34:54;;;;;;;4.93;3.70;;;23.90;40.60;;;;;;5015256;28;20394;-41
2021/05/14 06:37:20;;;;;;;5.40;3.50;;;23.90;40.70;;;;;;5016867;28;20032;-42
2021/05/14 06:39:47;;;;;;;3.60;3.28;;;23.90;40.60;;;;;;5026973;28;20028;-43
2021/05/14 06:42:14;;;;;;;4.55;4.18;;;23.90;40.40;;;;;;5022875;28;20035;-41
2021/05/14 06:44:40;;;;;;;4.32;4.03;;;23.80;40.40;;;;;;5030267;28;20029;-43
2021/05/14 06:47:06;;;;;;;4.03;3.72;;;23.80;40.30;;;;;;5027316;28;20026;-45
2021/05/14 06:49:33;;;;;;;4.05;3.75;;;23.80;40.30;;;;;;5022711;28;20045;-42
2021/05/14 06:51:59;;;;;;;3.38;3.08;;;23.80;40.30;;;;;;5018103;28;20029;-42
2021/05/14 06:54:25;;;;;;;4.20;3.28;;;23.80;40.20;;;;;;5013528;28;20026;-44
2021/05/14 06:56:51;;;;;;;3.38;3.08;;;23.90;40.70;;;;;;5014059;28;20032;-41
2021/05/14 06:59:18;;;;;;;2.55;2.35;;;23.80;40.20;;;;;;5026569;28;20064;-41
2021/05/14 07:01:44;;;;;;;3.05;2.80;;;23.90;40.10;;;;;;5039398;28;20029;-43
2021/05/14 07:04:10;;;;;;;3.03;2.70;;;23.90;40.10;;;;;;5035741;28;20088;-42
2021/05/14 07:06:36;;;;;;;3.08;2.88;;;23.90;40.00;;;;;;5031424;28;20021;-44
2021/05/14 07:09:04;;;;;;;3.50;3.22;;;23.80;40.00;;;;;;5023081;28;20431;-43
2021/05/14 07:11:29;;;;;;;3.60;3.30;;;23.80;40.10;;;;;;5026785;28;20025;-42
2021/05/14 07:13:55;;;;;;;4.40;4.00;;;23.80;40.10;;;;;;5028690;28;20482;-41
2021/05/14 07:16:21;;;;;;;5.80;3.70;;;23.70;40.20;;;;;;5029612;28;20036;-41
2021/05/14 07:18:48;;;;;;;3.70;3.40;;;23.80;40.00;;;;;;5023922;28;20032;-42
2021/05/14 07:21:13;;;;;;;4.65;4.25;;;23.80;40.10;;;;;;5016661;28;20029;-42
2021/05/14 07:23:41;;;;;;;3.55;3.25;;;23.80;40.10;;;;;;5015364;28;20116;-43
2021/05/14 07:26:07;;;;;;;5.70;5.13;;;23.80;40.10;;;;;;5028291;28;20026;-44
2021/05/14 07:28:33;;;;;;;6.80;6.20;;;23.70;40.00;;;;;;5028099;28;20042;-44
2021/05/14 07:30:59;;;;;;;5.35;4.88;;;23.70;40.00;;;;;;5045054;28;20033;-44
2021/05/14 07:33:24;;;;;;;4.82;4.43;;;23.70;40.70;;;;;;5035789;28;20037;-40
2021/05/14 07:35:50;;;;;;;4.97;4.47;;;23.80;40.70;;;;;;4998939;28;20032;-42
2021/05/14 07:38:16;;;;;;;6.22;4.72;;;23.90;40.10;;;;;;5017046;28;20500;-43
2021/05/14 07:40:43;;;;;;;6.50;5.90;;;23.90;40.00;;;;;;5019847;28;20026;-40
2021/05/14 07:43:09;;;;;;;7.40;6.07;;;23.90;39.90;;;;;;5028668;28;20030;-40
2021/05/14 07:45:35;;;;;;;7.57;6.88;;;23.90;39.90;;;;;;5021612;28;20557;-39
2021/05/14 07:48:03;;;;;;;9.13;8.23;;;23.80;39.80;;;;;;5033182;28;20029;-41
2021/05/14 07:50:29;;;;;;;9.13;7.15;;;23.70;39.90;;;;;;5026952;28;20065;-39
2021/05/14 07:52:55;;;;;;;9.95;8.93;;;23.90;39.90;;;;;;5023814;28;20059;-40
2021/05/14 07:55:21;;;;;;;10.20;8.98;;;23.80;39.80;;;;;;5030504;28;20025;-42
2021/05/14 07:57:47;;;;;;;9.63;8.52;;;23.80;39.80;;;;;;5035815;28;20029;-39
2021/05/14 08:00:14;;;;;;;10.93;9.32;;;23.90;39.80;;;;;;5002463;28;20033;-42
2021/05/14 08:02:40;;;;;;;11.23;10.00;;;23.80;40.20;;;;;;5016711;28;20014;-44
2021/05/14 08:05:06;;;;;;;13.90;10.32;;;23.90;39.80;;;;;;5028348;28;20495;-37
2021/05/14 08:07:32;;;;;;;13.73;11.15;;;23.90;39.80;;;;;;5025499;28;20044;-40
2021/05/14 08:09:58;;;;;;;12.50;10.38;;;23.80;39.60;;;;;;5015106;28;20037;-41
2021/05/14 08:12:24;;;;;;;13.45;11.35;;;23.90;39.90;;;;;;5024563;28;20084;-39
2021/05/14 08:14:50;;;;;;;13.30;10.88;;;23.70;39.60;;;;;;5013850;28;20036;-39
2021/05/14 08:17:16;;;;;;;12.43;10.77;;;23.70;39.60;;;;;;5014805;28;20478;-39
2021/05/14 08:19:41;;;;;;;14.63;11.30;;;23.70;39.70;;;;;;5017097;28;20032;-40
2021/05/14 08:22:07;;;;;;;10.90;9.88;;;23.70;39.70;;;;;;5021048;28;20029;-40
2021/05/14 08:24:33;;;;;;;10.38;9.27;;;23.70;39.70;;;;;;5025191;28;20097;-40
2021/05/14 08:26:59;;;;;;;11.60;8.60;;;23.80;39.60;;;;;;5024549;28;20030;-42
2021/05/14 08:29:25;;;;;;;10.95;7.75;;;23.80;39.50;;;;;;5027585;28;20041;-39
2021/05/14 08:31:52;;;;;;;10.07;8.70;;;23.80;39.50;;;;;;5031905;28;20029;-39
2021/05/14 08:34:18;;;;;;;12.95;8.57;;;23.90;39.50;;;;;;5015550;28;20029;-39
2021/05/14 08:36:44;;;;;;;8.63;7.72;;;23.80;39.40;;;;;;5020875;28;20083;-39
2021/05/14 08:39:10;;;;;;;8.75;7.07;;;23.80;39.50;;;;;;5017102;28;20037;-39
2021/05/14 08:41:37;;;;;;;10.13;7.07;;;23.90;39.60;;;;;;5015359;28;20497;-38
2021/05/14 08:44:08;;;;;;;7.13;5.65;;;23.90;40.30;;;;;;5013369;28;20026;-39
2021/05/14 08:46:36;;;;;;;6.93;4.72;;;23.90;40.60;;;;;;5018668;28;20052;-43
2021/05/14 08:49:04;;;;;;;7.85;5.72;;;23.90;41.30;;;;;;5027223;28;20034;-42
2021/05/14 08:51:30;;;;;;;7.97;6.90;;;23.90;40.50;;;;;;5019409;28;20026;-43
2021/05/14 08:54:02;;;;;;;8.27;6.63;;;23.80;40.20;;;;;;5000220;28;20055;-44
2021/05/14 08:56:28;;;;;;;;;;;23.80;40.80;;;;;;5013558;28;20026;-44
2021/05/14 08:58:58;;;;;;;;;;;23.90;40.40;;;;;;5019092;28;19916;-44
2021/05/14 09:01:24;;;;;;;;;;;23.90;40.30;;;;;;5025702;28;20008;-42
2021/05/14 09:03:56;;;;;;;;;;;23.90;40.40;;;;;;5006120;28;20358;-43
2021/05/14 09:06:31;;;;;;;;;;;24.00;40.50;;;;;;5017907;28;19909;-47
2021/05/14 09:08:59;;;;;;;;;;;24.50;42.00;;;;;;5030658;28;20382;-44
2021/05/14 09:11:39;;;;;;;;;;;24.50;39.20;;;;;;5013094;28;19917;-41
2021/05/14 09:14:06;;;;;;;;;;;24.20;39.60;;;;;;4995963;28;20395;-45
2021/05/14 09:16:38;;;;;;;;;;;24.00;39.50;;;;;;4999585;28;20321;-43
2021/05/14 09:19:04;;;;;;;;;;;23.90;39.10;;;;;;5021709;28;19952;-44
2021/05/14 09:21:30;;;;;;;;;;;23.90;38.70;;;;;;5014821;28;19952;-43
2021/05/14 09:23:56;;;;;;;;;;;23.80;38.60;;;;;;5000126;28;20476;-44
2021/05/14 09:26:27;;;;;;;;;;;23.90;38.60;;;;;;5021863;28;20000;-43
2021/05/14 09:28:53;;;;;;;;;;;23.90;38.60;;;;;;5021108;28;19916;-43
2021/05/14 09:31:19;;;;;;;;;;;23.90;38.20;;;;;;5017886;28;19992;-46
2021/05/14 09:33:45;;;;;;;;;;;23.90;38.20;;;;;;5014084;28;20278;-43
2021/05/14 09:36:12;;;;;;;;;;;24.00;38.30;;;;;;5015800;28;19920;-43
2021/05/14 09:38:58;;;;;;;;;;;24.00;38.00;;;;;;5012717;28;19909;-45
2021/05/14 09:41:39;;;;;;;;;;;24.00;37.90;;;;;;5001904;28;19928;-49
2021/05/14 09:44:15;;;;;;;;;;;24.10;39.10;;;;;;5014647;28;19921;-45
2021/05/14 09:46:45;;;;;;;;;;;24.10;38.00;;;;;;5012319;28;20304;-43
2021/05/14 09:49:10;;;;;;;;;;;24.20;38.60;;;;;;5011718;28;19917;-45
2021/05/14 09:51:47;;;;;;;;;;;24.30;38.10;;;;;;5013156;28;19916;-45
2021/05/14 09:54:18;;;;;;;;;;;24.30;38.20;;;;;;5013485;28;19917;-47
2021/05/14 09:56:45;;;;;;;;;;;24.30;38.60;;;;;;5016643;28;19952;-49
2021/05/14 09:59:11;;;;;;;2.25;1.38;;;24.30;37.90;;;;;;5025661;28;20398;-43
2021/05/14 10:01:38;;;;;;;2.55;1.15;;;24.30;38.00;;;;;;5021662;28;20064;-46
2021/05/14 10:04:05;;;;;;;1.73;1.08;;;24.40;38.20;;;;;;5028943;28;20044;-45
2021/05/14 10:06:35;;;;;;;2.25;1.38;;;24.40;38.00;;;;;;5016928;28;20052;-42
2021/05/14 10:09:07;;;;;;;2.38;1.52;;;24.40;37.60;;;;;;5033241;28;20040;-42
2021/05/14 10:11:34;;;;;;;5.72;2.30;;;24.50;37.60;;;;;;5028894;28;20036;-43
2021/05/14 10:14:02;;;;;;;2.67;1.75;;;24.50;37.20;;;;;;5029618;28;20060;-42
2021/05/14 10:16:29;;;;;;;3.30;0.98;;;24.50;37.50;;;;;;5018538;28;20108;-40
2021/05/14 10:18:57;;;;;;;1.80;1.10;;;24.40;37.20;;;;;;5029981;28;20017;-45
2021/05/14 10:21:23;;;;;;;3.10;1.00;;;24.40;37.10;;;;;;5021297;28;20025;-44
2021/05/14 10:23:49;;;;;;;1.73;0.80;;;24.40;36.90;;;;;;5024129;28;20460;-41
2021/05/14 10:26:15;;;;;;;4.95;0.80;;;24.30;36.90;;;;;;5031267;28;20025;-43
2021/05/14 10:28:46;;;;;;;1.50;1.40;;;24.30;36.90;;;;;;5029658;28;20167;-44
2021/05/14 10:31:17;;;;;;;2.92;1.52;;;24.20;36.30;;;;;;5030335;28;20029;-43
2021/05/14 10:33:48;;;;;;;1.80;0.73;;;24.20;36.40;;;;;;5020731;28;20095;-40
2021/05/14 10:36:24;;;;;;;2.10;0.90;;;24.20;36.60;;;;;;5029830;28;20042;-46
2021/05/14 10:39:05;;;;;;;1.30;0.70;;;24.30;36.30;;;;;;5025987;28;20069;-49
2021/05/14 10:41:31;;;;;;;2.40;1.00;;;24.30;36.00;;;;;;5024086;28;20025;-48
2021/05/14 10:44:06;;;;;;;0.98;0.73;;;24.30;36.20;;;;;;5025601;28;20033;-44
2021/05/14 10:46:33;;;;;;;2.50;0.60;;;24.30;36.20;;;;;;5017705;28;20116;-48
2021/05/14 10:49:06;;;;;;;4.40;0.80;;;24.50;36.50;;;;;;5015960;28;20032;-43
2021/05/14 10:51:51;;;;;;;2.00;0.63;;;24.50;36.20;;;;;;5022275;28;20037;-47
2021/05/14 10:54:39;;;;;;;3.95;0.70;;;24.60;35.90;;;;;;5018965;28;20021;-45
2021/05/14 10:57:06;;;;;;;2.78;1.38;;;24.70;35.70;;;;;;5013894;28;20364;-43
2021/05/14 10:59:34;;;;;;;1.52;1.23;;;24.60;35.50;;;;;;5027708;28;20079;-39
2021/05/14 11:02:21;;;;;;;2.40;0.70;;;24.60;35.70;;;;;;5015611;28;20491;-44
2021/05/14 11:04:48;;;;;;;2.17;0.50;;;24.60;35.90;;;;;;5017294;28;20083;-43
2021/05/14 11:07:35;;;;;;;2.78;0.90;;;24.70;36.10;;;;;;5019042;28;20087;-44
2021/05/14 11:10:13;;;;;;;1.88;0.50;;;24.80;36.90;;;;;;5016323;28;20041;-44
2021/05/14 11:12:40;;;;;;;3.38;0.77;;;24.80;36.80;;;;;;5017446;28;21283;-42
2021/05/14 11:15:21;;;;;;;3.13;0.60;;;24.70;39.00;;;;;;5024521;28;20487;-48
2021/05/14 11:18:06;;;;;;;4.57;0.98;;;24.70;37.40;;;;;;5026255;28;20071;-47
2021/05/14 11:20:46;;;;;;;1.40;0.73;;;24.70;36.50;;;;;;5022205;28;20041;-47
2021/05/14 11:23:42;;;;;;;3.28;1.20;;;24.60;36.10;;;;;;5014960;28;20033;-43
2021/05/14 11:26:17;;;;;;;1.70;0.82;;;24.40;35.10;;;;;;5019284;28;20026;-46
2021/05/14 11:28:45;;;;;;;3.65;0.80;;;24.40;35.60;;;;;;5021563;28;20025;-46
2021/05/14 11:31:23;;;;;;;2.50;0.40;;;24.50;35.50;;;;;;5025548;28;20029;-45
2021/05/14 11:33:51;;;;;;;2.75;0.60;;;24.50;35.40;;;;;;5018547;28;20402;-46
2021/05/14 11:36:18;;;;;;;1.98;0.60;;;24.50;35.40;;;;;;5000959;28;20040;-47
2021/05/14 11:38:54;;;;;;;1.58;0.50;;;24.50;35.50;;;;;;5023680;28;20022;-45
2021/05/14 11:41:27;;;;;;;1.98;0.40;;;24.60;35.60;;;;;;5024660;28;20092;-43
2021/05/14 11:44:03;;;;;;;1.38;0.70;;;24.70;35.30;;;;;;5020379;28;20121;-47
2021/05/14 11:46:32;;;;;;;1.20;0.35;;;24.70;35.10;;;;;;5021976;28;20576;-46
2021/05/14 11:49:08;;;;;;;0.75;0.25;;;24.60;35.50;;;;;;5020813;28;20033;-44
2021/05/14 11:51:34;;;;;;;1.30;0.50;;;24.70;35.30;;;;;;5030377;28;20108;-43
2021/05/14 11:54:14;;;;;;;1.77;0.47;;;24.60;35.00;;;;;;5017765;28;20022;-45
2021/05/14 11:56:41;;;;;;;1.67;0.50;;;24.70;35.20;;;;;;4998669;28;20041;-41
2021/05/14 11:59:20;;;;;;;1.77;0.40;;;24.90;35.90;;;;;;5024596;28;20101;-42
2021/05/14 12:01:46;;;;;;;1.48;0.47;;;24.90;35.70;;;;;;5022090;28;20034;-39
2021/05/14 12:04:12;;;;;;;3.08;0.40;;;24.90;35.30;;;;;;5012482;28;20056;-38
2021/05/14 12:06:49;;;;;;;0.70;0.20;;;24.90;34.90;;;;;;5031574;28;20629;-38
2021/05/14 12:09:15;;;;;;;2.25;0.20;;;24.90;34.80;;;;;;5018444;28;20026;-40
2021/05/14 12:11:44;;;;;;;1.67;0.47;;;24.90;35.60;;;;;;5025000;28;20029;-43
2021/05/14 12:14:11;;;;;;;1.67;0.38;;;24.90;34.50;;;;;;5029645;28;20045;-39
2021/05/14 12:16:38;;;;;;;2.78;0.60;;;24.80;33.50;;;;;;5026573;28;20034;-40
2021/05/14 12:19:04;;;;;;;1.95;0.30;;;24.80;32.80;;;;;;4994685;28;20022;-41
2021/05/14 12:21:32;;;;;;;2.13;0.30;;;24.70;34.20;;;;;;5028794;28;20033;-39
2021/05/14 12:24:11;;;;;;;0.98;0.20;;;24.80;34.30;;;;;;5036245;28;20038;-40
2021/05/14 12:26:38;;;;;;;1.17;0.40;;;24.80;34.80;;;;;;5021263;28;20056;-44
2021/05/14 12:29:20;;;;;;;0.73;0.20;;;24.90;35.20;;;;;;5019738;28;20040;-42
2021/05/14 12:31:52;;;;;;;;;;;25.00;36.00;;;;;;5028799;28;20029;-49
2021/05/14 12:34:21;;;;;;;4.07;0.40;;;25.40;41.10;;;;;;5029076;28;19962;-46
2021/05/14 12:36:58;;;;;;;1.15;0.30;;;25.50;35.70;;;;;;5027555;28;20025;-44
2021/05/14 12:39:25;;;;;;;4.85;0.65;;;25.30;35.50;;;;;;5015205;28;20025;-42
2021/05/14 12:41:51;;;;;;;1.17;0.30;;;25.20;34.90;;;;;;5030255;28;20554;-49
2021/05/14 12:44:20;;;;;;;0.80;0.38;;;25.20;34.50;;;;;;5010078;28;20116;-48
2021/05/14 12:47:10;;;;;;;1.25;0.30;;;25.20;34.30;;;;;;5024933;28;20028;-50
2021/05/14 12:49:51;;;;;;;0.85;0.30;;;25.30;34.70;;;;;;5012647;28;20049;-47
2021/05/14 12:52:21;;;;;;;;;;;25.30;34.90;;;;;;5025562;28;20033;-48
2021/05/14 12:55:16;;;;;;;1.10;0.30;;;25.30;34.60;;;;;;5026967;28;19913;-50
2021/05/14 12:57:56;;;;;;;4.00;0.43;;;25.40;35.60;;;;;;5015241;28;20022;-41
2021/05/14 13:00:35;;;;;;;2.63;0.60;;;25.60;36.00;;;;;;5027007;28;20021;-43
2021/05/14 13:03:04;;;;;;;1.67;0.40;;;25.40;35.20;;;;;;5027641;28;20021;-45